createdAt,value
2023-01-07T00:00:39.383Z,1.28
2023-01-07T00:01:02.487Z,1.44
2023-01-07T00:01:34.974Z,1.44
2023-01-07T00:02:06.502Z,1.44
2023-01-07T00:02:35.420Z,1.44
2023-01-07T00:02:55.333Z,1.44
2023-01-07T00:03:26.706Z,1.44
2023-01-07T00:03:58.637Z,1.44
2023-01-07T00:04:30.515Z,1.44
2023-01-07T00:05:03.438Z,1.44
2023-01-07T00:05:34.922Z,1.44
2023-01-07T00:06:07.444Z,1.44
2023-01-07T00:06:34.467Z,1.61
2023-01-07T00:06:54.466Z,1.44
2023-01-07T00:07:26.451Z,1.44
2023-01-07T00:07:58.487Z,1.61
2023-01-07T00:08:30.470Z,1.77
2023-01-07T00:09:02.453Z,2.33
2023-01-07T00:09:34.871Z,2.33
2023-01-07T00:10:06.772Z,2.49
2023-01-07T00:10:35.682Z,2.49
2023-01-07T00:10:54.705Z,1.93
2023-01-07T00:11:26.559Z,1.77
2023-01-07T00:11:58.529Z,1.61
2023-01-07T00:12:31.438Z,1.77
2023-01-07T00:13:02.500Z,1.77
2023-01-07T00:13:34.985Z,1.93
2023-01-07T00:14:06.518Z,1.77
2023-01-07T00:14:35.560Z,2.09
2023-01-07T00:14:54.490Z,2.09
2023-01-07T00:15:27.018Z,2.09
2023-01-07T00:15:44.484Z,1.93
2023-01-07T00:16:14.652Z,1.77
2023-01-07T00:16:35.948Z,1.93
2023-01-07T00:17:02.483Z,1.93
2023-01-07T00:17:35.413Z,1.77
2023-01-07T00:18:06.463Z,1.77
2023-01-07T00:18:35.755Z,1.77
2023-01-07T00:18:55.596Z,1.93
2023-01-07T00:19:26.480Z,1.77
2023-01-07T00:19:43.394Z,1.77
2023-01-07T00:20:15.420Z,1.77
2023-01-07T00:20:36.026Z,1.77
2023-01-07T00:21:02.485Z,1.93
2023-01-07T00:21:35.113Z,1.93
2023-01-07T00:22:07.386Z,2.09
2023-01-07T00:22:35.653Z,2.09
2023-01-07T00:22:54.470Z,2.09
2023-01-07T00:23:26.470Z,2.09
2023-01-07T00:23:43.384Z,2.09
2023-01-07T00:24:15.524Z,2.09
2023-01-07T00:24:35.890Z,2.09
2023-01-07T00:25:03.342Z,2.09
2023-01-07T00:25:35.554Z,1.77
2023-01-07T00:26:06.674Z,1.28
2023-01-07T00:26:35.656Z,1.28
2023-01-07T00:26:54.485Z,1.28
2023-01-07T00:27:26.507Z,1.12
2023-01-07T00:27:43.379Z,1.12
2023-01-07T00:28:14.482Z,1.12
2023-01-07T00:28:35.898Z,1.12
2023-01-07T00:29:02.528Z,1.12
2023-01-07T00:29:34.959Z,1.12
2023-01-07T00:30:07.885Z,.72
2023-01-07T00:30:35.803Z,.16
2023-01-07T00:30:54.856Z,.16
2023-01-07T00:31:26.608Z,.16
2023-01-07T00:31:44.159Z,.16
2023-01-07T00:32:14.509Z,0
2023-01-07T00:32:35.910Z,0
2023-01-07T00:33:02.946Z,0
2023-01-07T00:33:35.154Z,.16
2023-01-07T00:34:06.469Z,.32
2023-01-07T00:34:35.606Z,.32
2023-01-07T00:34:54.483Z,.72
2023-01-07T00:35:26.865Z,1.12
2023-01-07T00:35:43.396Z,1.12
2023-01-07T00:36:14.560Z,1.12
2023-01-07T00:36:35.926Z,.72
2023-01-07T00:37:02.465Z,.72
2023-01-07T00:37:34.954Z,.48
2023-01-07T00:38:06.493Z,.48
2023-01-07T00:38:35.704Z,.88
2023-01-07T00:38:54.455Z,.88
2023-01-07T00:39:26.469Z,.88
2023-01-07T00:39:44.230Z,1.12
2023-01-07T00:40:14.828Z,1.28
2023-01-07T00:40:35.935Z,1.12
2023-01-07T00:41:02.468Z,1.12
2023-01-07T00:41:35.089Z,1.28
2023-01-07T00:42:06.529Z,1.12
2023-01-07T00:42:35.879Z,1.12
2023-01-07T00:42:55.212Z,.88
2023-01-07T00:43:26.456Z,.48
2023-01-07T00:43:43.180Z,.32
2023-01-07T00:44:14.491Z,.16
2023-01-07T00:44:36.195Z,.16
2023-01-07T00:45:03.681Z,.16
2023-01-07T00:45:34.883Z,.32
2023-01-07T00:46:07.561Z,.32
2023-01-07T00:46:35.675Z,.32
2023-01-07T00:46:54.520Z,.32
2023-01-07T00:47:26.441Z,.32
2023-01-07T00:47:58.464Z,.32
2023-01-07T00:48:30.440Z,.32
2023-01-07T00:49:02.466Z,.32
2023-01-07T00:49:34.938Z,.32
2023-01-07T00:50:06.779Z,.32
2023-01-07T00:50:35.796Z,.32
2023-01-07T00:50:54.752Z,.32
2023-01-07T00:51:26.478Z,.32
2023-01-07T00:51:43.257Z,.32
2023-01-07T00:52:14.550Z,.32
2023-01-07T00:52:35.896Z,.48
2023-01-07T00:53:02.504Z,.64
2023-01-07T00:53:35.361Z,.64
2023-01-07T00:54:06.504Z,.64
2023-01-07T00:54:35.725Z,.64
2023-01-07T00:54:54.456Z,.64
2023-01-07T00:55:26.809Z,.64
2023-01-07T00:55:44.186Z,.48
2023-01-07T00:56:14.547Z,.48
2023-01-07T00:56:35.882Z,.32
2023-01-07T00:57:02.475Z,.32
2023-01-07T00:57:35.403Z,.32
2023-01-07T00:58:06.481Z,.32
2023-01-07T00:58:35.885Z,.32
2023-01-07T00:58:55.275Z,.32
2023-01-07T00:59:26.479Z,.32
2023-01-07T00:59:43.391Z,.32
2023-01-07T01:00:16.348Z,.32
2023-01-07T01:00:36.072Z,.32
2023-01-07T01:01:02.609Z,.16
2023-01-07T01:01:35.055Z,.16
2023-01-07T01:02:07.382Z,0
2023-01-07T01:02:35.704Z,0
2023-01-07T01:02:54.510Z,0
2023-01-07T01:03:26.646Z,0
2023-01-07T01:03:43.204Z,.16
2023-01-07T01:04:14.520Z,.32
2023-01-07T01:04:35.874Z,.32
2023-01-07T01:05:03.616Z,.16
2023-01-07T01:05:35.717Z,.16
2023-01-07T01:06:06.534Z,.16
2023-01-07T01:06:35.726Z,.16
2023-01-07T01:06:54.439Z,.16
2023-01-07T01:07:26.480Z,0
2023-01-07T01:07:43.346Z,0
2023-01-07T01:08:14.484Z,0
2023-01-07T01:08:35.910Z,0
2023-01-07T01:09:02.428Z,0
2023-01-07T01:09:35.536Z,0
2023-01-07T01:10:07.108Z,0
2023-01-07T01:10:35.752Z,0
2023-01-07T01:10:54.679Z,0
2023-01-07T01:11:26.479Z,0
2023-01-07T01:11:44.321Z,0
2023-01-07T01:12:14.487Z,0
2023-01-07T01:12:35.909Z,0
2023-01-07T01:13:02.485Z,0
2023-01-07T01:13:34.541Z,0
2023-01-07T01:14:06.519Z,0
2023-01-07T01:14:35.743Z,0
2023-01-07T01:14:55.425Z,0
2023-01-07T01:15:27.109Z,.16
2023-01-07T01:15:58.555Z,.16
2023-01-07T01:16:30.606Z,.16
2023-01-07T01:17:02.477Z,.16
2023-01-07T01:17:34.575Z,0
2023-01-07T01:18:07.359Z,0
2023-01-07T01:18:35.730Z,0
2023-01-07T01:18:54.514Z,0
2023-01-07T01:19:26.421Z,0
2023-01-07T01:19:58.463Z,0
2023-01-07T01:20:30.771Z,.16
2023-01-07T01:21:02.431Z,.16
2023-01-07T01:21:35.622Z,.16
2023-01-07T01:22:06.542Z,0
2023-01-07T01:22:35.803Z,0
2023-01-07T01:22:54.455Z,0
2023-01-07T01:23:26.460Z,0
2023-01-07T01:23:43.398Z,.16
2023-01-07T01:24:14.591Z,.32
2023-01-07T01:24:35.886Z,.16
2023-01-07T01:25:03.457Z,0
2023-01-07T01:25:34.516Z,0
2023-01-07T01:26:06.498Z,.16
2023-01-07T01:26:35.703Z,.32
2023-01-07T01:26:54.413Z,.32
2023-01-07T01:27:26.437Z,.48
2023-01-07T01:27:44.238Z,.88
2023-01-07T01:28:14.549Z,.48
2023-01-07T01:28:35.852Z,.32
2023-01-07T01:29:02.437Z,.32
2023-01-07T01:29:34.514Z,.32
2023-01-07T01:30:08.125Z,.32
2023-01-07T01:30:35.726Z,.16
2023-01-07T01:30:55.590Z,.16
2023-01-07T01:31:26.825Z,.16
2023-01-07T01:31:43.520Z,.16
2023-01-07T01:32:14.569Z,.16
2023-01-07T01:32:35.958Z,.16
2023-01-07T01:33:03.182Z,0
2023-01-07T01:33:34.560Z,0
2023-01-07T01:34:06.434Z,.16
2023-01-07T01:34:35.767Z,.32
2023-01-07T01:34:54.429Z,.32
2023-01-07T01:35:26.795Z,.32
2023-01-07T01:35:58.467Z,.32
2023-01-07T01:36:31.250Z,.32
2023-01-07T01:37:02.414Z,.32
2023-01-07T01:37:35.579Z,.32
2023-01-07T01:38:06.471Z,.32
2023-01-07T01:38:35.880Z,.32
2023-01-07T01:38:54.443Z,.32
2023-01-07T01:39:26.472Z,.32
2023-01-07T01:39:44.224Z,.32
2023-01-07T01:40:14.961Z,.48
2023-01-07T01:40:36.250Z,.48
2023-01-07T01:41:02.601Z,.48
2023-01-07T01:41:35.126Z,.32
2023-01-07T01:42:06.509Z,.32
2023-01-07T01:42:36.392Z,.32
2023-01-07T01:42:55.310Z,.32
2023-01-07T01:43:27.148Z,.32
2023-01-07T01:43:59.200Z,.32
2023-01-07T01:44:30.664Z,.16
2023-01-07T01:45:05.843Z,0
2023-01-07T01:45:35.162Z,0
2023-01-07T01:46:08.260Z,0
2023-01-07T01:46:36.247Z,0
2023-01-07T01:46:54.748Z,0
2023-01-07T01:47:26.654Z,0
2023-01-07T01:47:58.620Z,0
2023-01-07T01:48:30.693Z,0
2023-01-07T01:49:02.630Z,0
2023-01-07T01:49:34.476Z,0
2023-01-07T01:50:07.482Z,0
2023-01-07T01:50:35.869Z,0
2023-01-07T01:50:55.638Z,0
2023-01-07T01:51:26.486Z,0
2023-01-07T01:51:58.590Z,0
2023-01-07T01:52:31.417Z,0
2023-01-07T01:53:02.506Z,0
2023-01-07T01:53:34.478Z,0
2023-01-07T01:54:06.446Z,0
2023-01-07T01:54:35.893Z,0
2023-01-07T01:54:54.475Z,0
2023-01-07T01:55:26.797Z,0
2023-01-07T01:55:44.359Z,0
2023-01-07T01:56:14.511Z,0
2023-01-07T01:56:35.921Z,0
2023-01-07T01:57:02.643Z,0
2023-01-07T01:57:34.604Z,0
2023-01-07T01:58:06.490Z,0
2023-01-07T01:58:36.020Z,0
2023-01-07T01:58:55.327Z,0
2023-01-07T01:59:26.475Z,0
2023-01-07T01:59:58.582Z,0
2023-01-07T02:00:31.139Z,0
2023-01-07T02:01:02.627Z,0
2023-01-07T02:01:36.018Z,0
2023-01-07T02:02:07.522Z,0
2023-01-07T02:02:36.035Z,0
2023-01-07T02:02:54.493Z,0
2023-01-07T02:03:26.736Z,0
2023-01-07T02:03:43.415Z,0
2023-01-07T02:04:14.521Z,0
2023-01-07T02:04:36.010Z,0
2023-01-07T02:05:03.529Z,0
2023-01-07T02:05:34.538Z,0
2023-01-07T02:06:06.750Z,0
2023-01-07T02:06:35.943Z,0
2023-01-07T02:06:54.474Z,0
2023-01-07T02:07:26.476Z,0
2023-01-07T02:07:58.503Z,0
2023-01-07T02:08:31.331Z,0
2023-01-07T02:09:02.480Z,0
2023-01-07T02:09:34.512Z,0
2023-01-07T02:10:06.828Z,0
2023-01-07T02:10:36.036Z,0
2023-01-07T02:10:54.732Z,0
2023-01-07T02:11:26.535Z,0
2023-01-07T02:11:44.254Z,0
2023-01-07T02:12:14.504Z,0
2023-01-07T02:12:35.997Z,0
2023-01-07T02:13:02.516Z,0
2023-01-07T02:13:34.563Z,0
2023-01-07T02:14:06.485Z,0
2023-01-07T02:14:35.899Z,0
2023-01-07T02:14:55.408Z,0
2023-01-07T02:15:27.133Z,0
2023-01-07T02:15:58.522Z,0
2023-01-07T02:16:30.662Z,0
2023-01-07T02:17:02.457Z,0
2023-01-07T02:17:34.475Z,0
2023-01-07T02:18:07.255Z,0
2023-01-07T02:18:35.883Z,0
2023-01-07T02:18:54.503Z,0
2023-01-07T02:19:26.775Z,0
2023-01-07T02:19:43.306Z,0
2023-01-07T02:20:14.797Z,0
2023-01-07T02:20:36.013Z,0
2023-01-07T02:21:02.486Z,0
2023-01-07T02:21:34.476Z,0
2023-01-07T02:22:06.494Z,0
2023-01-07T02:22:35.919Z,0
2023-01-07T02:22:54.465Z,0
2023-01-07T02:23:26.457Z,0
2023-01-07T02:23:58.492Z,0
2023-01-07T02:24:31.293Z,0
2023-01-07T02:25:04.309Z,0
2023-01-07T02:25:34.594Z,0
2023-01-07T02:26:06.475Z,0
2023-01-07T02:26:35.942Z,0
2023-01-07T02:26:54.579Z,0
2023-01-07T02:27:26.512Z,0
2023-01-07T02:27:44.241Z,0
2023-01-07T02:28:14.493Z,0
2023-01-07T02:28:35.958Z,0
2023-01-07T02:29:02.508Z,0
2023-01-07T02:29:34.521Z,0
2023-01-07T02:30:08.685Z,0
2023-01-07T02:30:35.947Z,0
2023-01-07T02:30:57.129Z,0
2023-01-07T02:31:26.530Z,0
2023-01-07T02:31:58.539Z,0
2023-01-07T02:32:30.475Z,0
2023-01-07T02:33:03.263Z,0
2023-01-07T02:33:34.496Z,0
2023-01-07T02:34:07.264Z,0
2023-01-07T02:34:35.938Z,0
2023-01-07T02:34:54.509Z,0
2023-01-07T02:35:26.768Z,0
2023-01-07T02:35:58.461Z,0
2023-01-07T02:36:30.438Z,0
2023-01-07T02:37:02.470Z,.16
2023-01-07T02:37:35.099Z,.32
2023-01-07T02:38:06.439Z,.32
2023-01-07T02:38:35.832Z,.32
2023-01-07T02:38:54.435Z,.32
2023-01-07T02:39:26.437Z,.32
2023-01-07T02:39:58.439Z,.32
2023-01-07T02:40:32.344Z,.32
2023-01-07T02:41:02.410Z,.48
2023-01-07T02:41:34.412Z,.48
2023-01-07T02:42:06.649Z,.64
2023-01-07T02:42:35.885Z,.64
2023-01-07T02:42:54.433Z,.48
2023-01-07T02:43:26.484Z,.48
2023-01-07T02:43:44.180Z,.32
2023-01-07T02:44:14.599Z,.32
2023-01-07T02:44:35.939Z,.48
2023-01-07T02:45:03.699Z,.48
2023-01-07T02:45:35.468Z,.88
2023-01-07T02:46:07.879Z,.88
2023-01-07T02:46:35.832Z,.88
2023-01-07T02:46:55.240Z,.48
2023-01-07T02:47:26.433Z,.32
2023-01-07T02:47:58.455Z,.32
2023-01-07T02:48:30.404Z,.32
2023-01-07T02:49:02.419Z,.32
2023-01-07T02:49:34.442Z,.32
2023-01-07T02:50:07.576Z,.32
2023-01-07T02:50:35.906Z,.32
2023-01-07T02:50:54.779Z,.32
2023-01-07T02:51:26.434Z,.32
2023-01-07T02:51:58.466Z,.32
2023-01-07T02:52:30.496Z,.32
2023-01-07T02:53:02.432Z,.32
2023-01-07T02:53:34.521Z,.32
2023-01-07T02:54:06.529Z,.32
2023-01-07T02:54:35.804Z,.32
2023-01-07T02:54:54.474Z,.32
2023-01-07T02:55:26.752Z,.16
2023-01-07T02:55:58.409Z,0
2023-01-07T02:56:31.285Z,0
2023-01-07T02:57:02.432Z,0
2023-01-07T02:57:34.482Z,0
2023-01-07T02:58:06.431Z,0
2023-01-07T02:58:35.806Z,0
2023-01-07T02:58:54.473Z,0
2023-01-07T02:59:26.432Z,0
2023-01-07T02:59:44.246Z,0
2023-01-07T03:00:15.724Z,0
2023-01-07T03:00:36.031Z,0
2023-01-07T03:01:02.691Z,0
2023-01-07T03:01:34.578Z,0
2023-01-07T03:02:06.471Z,0
2023-01-07T03:02:35.872Z,0
2023-01-07T03:02:55.221Z,0
2023-01-07T03:03:26.418Z,0
2023-01-07T03:03:58.507Z,0
2023-01-07T03:04:30.411Z,0
2023-01-07T03:05:03.529Z,0
2023-01-07T03:05:34.790Z,0
2023-01-07T03:06:07.207Z,0
2023-01-07T03:06:35.787Z,0
2023-01-07T03:06:54.472Z,0
2023-01-07T03:07:26.475Z,0
2023-01-07T03:07:43.402Z,0
2023-01-07T03:08:14.456Z,0
2023-01-07T03:08:35.961Z,0
2023-01-07T03:09:02.463Z,0
2023-01-07T03:09:34.539Z,0
2023-01-07T03:10:06.802Z,0
2023-01-07T03:10:35.937Z,0
2023-01-07T03:10:54.854Z,0
2023-01-07T03:11:26.436Z,0
2023-01-07T03:11:58.459Z,0
2023-01-07T03:12:31.895Z,0
2023-01-07T03:13:02.437Z,0
2023-01-07T03:13:34.468Z,0
2023-01-07T03:14:06.408Z,0
2023-01-07T03:14:35.960Z,0
2023-01-07T03:14:54.412Z,0
2023-01-07T03:15:29.000Z,0
2023-01-07T03:15:44.281Z,0
2023-01-07T03:16:14.487Z,0
2023-01-07T03:16:35.999Z,0
2023-01-07T03:17:02.534Z,0
2023-01-07T03:17:35.546Z,0
2023-01-07T03:18:06.436Z,0
2023-01-07T03:18:35.845Z,0
2023-01-07T03:18:55.353Z,0
2023-01-07T03:19:26.462Z,0
2023-01-07T03:19:58.422Z,0
2023-01-07T03:20:30.849Z,0
2023-01-07T03:21:02.431Z,0
2023-01-07T03:21:34.407Z,0
2023-01-07T03:22:07.204Z,0
2023-01-07T03:22:35.801Z,0
2023-01-07T03:22:54.464Z,0
2023-01-07T03:23:26.579Z,0
2023-01-07T03:23:58.457Z,0
2023-01-07T03:24:30.429Z,0
2023-01-07T03:25:03.593Z,0
2023-01-07T03:25:34.426Z,0
2023-01-07T03:26:06.452Z,0
2023-01-07T03:26:36.061Z,0
2023-01-07T03:26:54.425Z,0
2023-01-07T03:27:26.407Z,0
2023-01-07T03:27:58.423Z,0
2023-01-07T03:28:31.220Z,0
2023-01-07T03:29:02.421Z,0
2023-01-07T03:29:34.442Z,0
2023-01-07T03:30:08.132Z,0
2023-01-07T03:30:35.900Z,0
2023-01-07T03:30:54.738Z,0
2023-01-07T03:31:26.512Z,0
2023-01-07T03:31:59.493Z,0
2023-01-07T03:32:30.444Z,0
2023-01-07T03:33:02.900Z,0
2023-01-07T03:33:34.520Z,0
2023-01-07T03:34:06.407Z,0
2023-01-07T03:34:36.006Z,0
2023-01-07T03:34:54.418Z,0
2023-01-07T03:35:26.758Z,.16
2023-01-07T03:35:58.439Z,.16
2023-01-07T03:36:31.169Z,0
2023-01-07T03:37:02.457Z,0
2023-01-07T03:37:34.407Z,0
2023-01-07T03:38:06.422Z,0
2023-01-07T03:38:35.868Z,.16
2023-01-07T03:38:54.480Z,.16
2023-01-07T03:39:26.744Z,.16
2023-01-07T03:39:45.092Z,.16
2023-01-07T03:40:14.794Z,.48
2023-01-07T03:40:36.109Z,.64
2023-01-07T03:41:02.464Z,.64
2023-01-07T03:41:34.457Z,.48
2023-01-07T03:42:06.507Z,.88
2023-01-07T03:42:35.819Z,.72
2023-01-07T03:42:55.337Z,.72
2023-01-07T03:43:26.426Z,.32
2023-01-07T03:43:43.343Z,.32
2023-01-07T03:44:14.508Z,.32
2023-01-07T03:44:36.034Z,.32
2023-01-07T03:45:03.816Z,.32
2023-01-07T03:45:34.531Z,.32
2023-01-07T03:46:07.698Z,.32
2023-01-07T03:46:35.812Z,.32
2023-01-07T03:46:54.439Z,.32
2023-01-07T03:47:26.458Z,.32
2023-01-07T03:47:43.349Z,.32
2023-01-07T03:48:14.512Z,.32
2023-01-07T03:48:36.091Z,.32
2023-01-07T03:49:02.418Z,.32
2023-01-07T03:49:34.800Z,.32
2023-01-07T03:50:06.785Z,.32
2023-01-07T03:50:35.884Z,.32
2023-01-07T03:50:54.645Z,.16
2023-01-07T03:51:26.438Z,0
2023-01-07T03:51:43.595Z,0
2023-01-07T03:52:14.515Z,0
2023-01-07T03:52:36.136Z,.16
2023-01-07T03:53:02.419Z,0
2023-01-07T03:53:34.464Z,.16
2023-01-07T03:54:06.409Z,.16
2023-01-07T03:54:35.870Z,.16
2023-01-07T03:54:54.483Z,.16
2023-01-07T03:55:26.773Z,0
2023-01-07T03:55:44.415Z,.16
2023-01-07T03:56:14.686Z,.32
2023-01-07T03:56:36.049Z,.32
2023-01-07T03:57:02.479Z,.32
2023-01-07T03:57:34.426Z,.32
2023-01-07T03:58:06.481Z,.32
2023-01-07T03:58:35.881Z,.48
2023-01-07T03:58:55.352Z,.32
2023-01-07T03:59:26.421Z,.32
2023-01-07T03:59:43.384Z,.32
2023-01-07T04:00:15.715Z,.32
2023-01-07T04:00:36.085Z,.32
2023-01-07T04:01:02.552Z,.32
2023-01-07T04:01:34.687Z,.16
2023-01-07T04:02:07.293Z,.48
2023-01-07T04:02:35.851Z,.16
2023-01-07T04:02:54.454Z,0
2023-01-07T04:03:26.474Z,0
2023-01-07T04:03:43.370Z,0
2023-01-07T04:04:14.514Z,0
2023-01-07T04:04:36.216Z,0
2023-01-07T04:05:03.441Z,0
2023-01-07T04:05:34.457Z,0
2023-01-07T04:06:06.432Z,0
2023-01-07T04:06:39.688Z,0
2023-01-07T04:07:10.440Z,0
2023-01-07T04:07:35.956Z,0
2023-01-07T04:07:58.436Z,0
2023-01-07T04:08:31.240Z,0
2023-01-07T04:09:02.391Z,0
2023-01-07T04:09:34.413Z,0
2023-01-07T04:10:06.790Z,0
2023-01-07T04:10:36.042Z,0
2023-01-07T04:10:54.696Z,0
2023-01-07T04:11:26.487Z,0
2023-01-07T04:11:44.238Z,.16
2023-01-07T04:12:14.521Z,.32
2023-01-07T04:12:36.159Z,.32
2023-01-07T04:13:02.442Z,.32
2023-01-07T04:13:35.336Z,.32
2023-01-07T04:14:06.454Z,.32
2023-01-07T04:14:35.830Z,.32
2023-01-07T04:14:59.312Z,.32
2023-01-07T04:15:27.040Z,.16
2023-01-07T04:15:43.363Z,.16
2023-01-07T04:16:14.536Z,.16
2023-01-07T04:16:36.138Z,.16
2023-01-07T04:17:02.435Z,0
2023-01-07T04:17:34.423Z,0
2023-01-07T04:18:07.321Z,0
2023-01-07T04:18:36.060Z,0
2023-01-07T04:18:54.424Z,0
2023-01-07T04:19:26.552Z,0
2023-01-07T04:19:43.373Z,0
2023-01-07T04:20:14.729Z,0
2023-01-07T04:20:36.242Z,0
2023-01-07T04:21:02.508Z,0
2023-01-07T04:21:35.755Z,0
2023-01-07T04:22:06.433Z,0
2023-01-07T04:22:35.991Z,0
2023-01-07T04:22:54.424Z,0
2023-01-07T04:23:26.417Z,0
2023-01-07T04:23:43.333Z,0
2023-01-07T04:24:14.505Z,0
2023-01-07T04:24:36.128Z,0
2023-01-07T04:25:03.295Z,0
2023-01-07T04:25:34.443Z,0
2023-01-07T04:26:06.471Z,0
2023-01-07T04:26:35.810Z,0
2023-01-07T04:26:54.443Z,0
2023-01-07T04:27:26.427Z,0
2023-01-07T04:27:44.132Z,0
2023-01-07T04:28:14.530Z,0
2023-01-07T04:28:36.143Z,0
2023-01-07T04:29:02.443Z,0
2023-01-07T04:29:34.422Z,0
2023-01-07T04:30:08.379Z,0
2023-01-07T04:30:36.256Z,0
2023-01-07T04:30:55.597Z,0
2023-01-07T04:31:26.479Z,0
2023-01-07T04:31:58.629Z,0
2023-01-07T04:32:30.472Z,0
2023-01-07T04:33:03.078Z,0
2023-01-07T04:33:34.434Z,0
2023-01-07T04:34:07.335Z,0
2023-01-07T04:34:35.958Z,0
2023-01-07T04:34:54.444Z,0
2023-01-07T04:35:26.772Z,0
2023-01-07T04:35:47.236Z,.16
2023-01-07T04:36:14.532Z,.16
2023-01-07T04:36:36.271Z,.16
2023-01-07T04:37:02.424Z,.16
2023-01-07T04:37:34.481Z,.32
2023-01-07T04:38:06.437Z,.32
2023-01-07T04:38:36.130Z,.16
2023-01-07T04:38:54.405Z,.16
2023-01-07T04:39:26.447Z,0
2023-01-07T04:39:43.406Z,0
2023-01-07T04:40:15.444Z,0
2023-01-07T04:40:36.206Z,0
2023-01-07T04:41:02.749Z,0
2023-01-07T04:41:34.589Z,0
2023-01-07T04:42:06.462Z,0
2023-01-07T04:42:36.255Z,0
2023-01-07T04:42:54.469Z,0
2023-01-07T04:43:26.462Z,0
2023-01-07T04:43:44.251Z,0
2023-01-07T04:44:14.457Z,0
2023-01-07T04:44:36.166Z,0
2023-01-07T04:45:03.905Z,0
2023-01-07T04:45:34.472Z,0
2023-01-07T04:46:08.041Z,0
2023-01-07T04:46:36.334Z,0
2023-01-07T04:46:55.138Z,0
2023-01-07T04:47:26.431Z,0
2023-01-07T04:47:43.359Z,0
2023-01-07T04:48:14.517Z,0
2023-01-07T04:48:36.307Z,0
2023-01-07T04:49:02.414Z,0
2023-01-07T04:49:35.953Z,0
2023-01-07T04:50:08.527Z,0
2023-01-07T04:50:35.799Z,0
2023-01-07T04:50:54.635Z,0
2023-01-07T04:51:26.441Z,0
2023-01-07T04:51:43.341Z,0
2023-01-07T04:52:14.492Z,0
2023-01-07T04:52:36.178Z,0
2023-01-07T04:53:02.433Z,0
2023-01-07T04:53:34.450Z,0
2023-01-07T04:54:06.472Z,0
2023-01-07T04:54:35.829Z,0
2023-01-07T04:54:54.404Z,0
2023-01-07T04:55:26.724Z,0
2023-01-07T04:55:45.002Z,0
2023-01-07T04:56:14.492Z,0
2023-01-07T04:56:36.217Z,0
2023-01-07T04:57:02.400Z,0
2023-01-07T04:57:34.408Z,0
2023-01-07T04:58:06.452Z,0
2023-01-07T04:58:35.845Z,0
2023-01-07T04:58:54.459Z,0
2023-01-07T04:59:26.435Z,0
2023-01-07T04:59:44.975Z,0
2023-01-07T05:00:15.622Z,0
2023-01-07T05:00:36.338Z,0
2023-01-07T05:01:02.565Z,0
2023-01-07T05:01:34.555Z,0
2023-01-07T05:02:06.164Z,0
2023-01-07T05:02:34.818Z,0
2023-01-07T05:02:54.866Z,0
2023-01-07T05:03:25.970Z,0
2023-01-07T05:03:43.007Z,0
2023-01-07T05:04:14.089Z,0
2023-01-07T05:04:35.469Z,0
2023-01-07T05:05:02.433Z,0
2023-01-07T05:05:33.908Z,0
2023-01-07T05:06:07.507Z,0
2023-01-07T05:06:35.391Z,0
2023-01-07T05:06:54.446Z,0
2023-01-07T05:07:26.468Z,0
2023-01-07T05:07:43.351Z,0
2023-01-07T05:08:14.466Z,0
2023-01-07T05:08:36.320Z,0
2023-01-07T05:09:02.485Z,0
2023-01-07T05:09:34.823Z,0
2023-01-07T05:10:06.907Z,0
2023-01-07T05:10:35.335Z,0
2023-01-07T05:10:54.651Z,0
2023-01-07T05:11:26.458Z,0
2023-01-07T05:11:43.331Z,0
2023-01-07T05:12:14.505Z,0
2023-01-07T05:12:35.842Z,0
2023-01-07T05:13:02.440Z,0
2023-01-07T05:13:34.763Z,0
2023-01-07T05:14:06.436Z,0
2023-01-07T05:14:35.344Z,0
2023-01-07T05:14:54.494Z,0
2023-01-07T05:15:27.140Z,0
2023-01-07T05:15:59.678Z,0
2023-01-07T05:16:30.444Z,0
2023-01-07T05:17:02.555Z,0
2023-01-07T05:17:34.577Z,0
2023-01-07T05:18:06.449Z,0
2023-01-07T05:18:35.325Z,0
2023-01-07T05:18:54.460Z,0
2023-01-07T05:19:26.429Z,0
2023-01-07T05:19:50.928Z,0
2023-01-07T05:20:14.697Z,0
2023-01-07T05:20:35.863Z,0
2023-01-07T05:21:02.442Z,0
2023-01-07T05:21:34.503Z,0
2023-01-07T05:22:06.434Z,0
2023-01-07T05:22:35.356Z,0
2023-01-07T05:22:54.451Z,0
2023-01-07T05:23:26.938Z,0
2023-01-07T05:23:58.457Z,0
2023-01-07T05:24:30.503Z,0
2023-01-07T05:25:03.860Z,0
2023-01-07T05:25:35.557Z,0
2023-01-07T05:26:06.532Z,0
2023-01-07T05:26:35.363Z,0
2023-01-07T05:26:54.446Z,0
2023-01-07T05:27:26.444Z,0
2023-01-07T05:27:43.323Z,0
2023-01-07T05:28:14.493Z,0
2023-01-07T05:28:36.748Z,0
2023-01-07T05:29:02.490Z,0
2023-01-07T05:29:34.504Z,0
2023-01-07T05:30:07.751Z,0
2023-01-07T05:30:35.466Z,0
2023-01-07T05:30:54.850Z,0
2023-01-07T05:31:26.438Z,0
2023-01-07T05:31:44.761Z,0
2023-01-07T05:32:14.467Z,0
2023-01-07T05:32:35.856Z,0
2023-01-07T05:33:02.967Z,0
2023-01-07T05:33:34.856Z,0
2023-01-07T05:34:06.471Z,0
2023-01-07T05:34:35.425Z,0
2023-01-07T05:34:54.435Z,0
2023-01-07T05:35:26.768Z,0
2023-01-07T05:35:43.298Z,0
2023-01-07T05:36:14.520Z,.16
2023-01-07T05:36:35.845Z,.32
2023-01-07T05:37:02.430Z,.32
2023-01-07T05:37:34.552Z,.32
2023-01-07T05:38:06.451Z,.32
2023-01-07T05:38:35.341Z,.32
2023-01-07T05:38:54.495Z,.32
2023-01-07T05:39:26.527Z,.48
2023-01-07T05:39:44.252Z,.48
2023-01-07T05:40:14.751Z,.48
2023-01-07T05:40:35.842Z,.48
2023-01-07T05:41:02.486Z,.48
2023-01-07T05:41:34.567Z,.48
2023-01-07T05:42:06.439Z,.48
2023-01-07T05:42:35.341Z,.16
2023-01-07T05:42:55.168Z,.32
2023-01-07T05:43:26.444Z,.32
2023-01-07T05:43:43.316Z,.32
2023-01-07T05:44:14.423Z,.32
2023-01-07T05:44:35.839Z,.16
2023-01-07T05:45:04.287Z,.16
2023-01-07T05:45:35.049Z,0
2023-01-07T05:46:07.579Z,0
2023-01-07T05:46:35.334Z,0
2023-01-07T05:46:54.447Z,0
2023-01-07T05:47:26.479Z,0
2023-01-07T05:47:43.328Z,.16
2023-01-07T05:48:14.435Z,0
2023-01-07T05:48:35.935Z,0
2023-01-07T05:49:02.447Z,0
2023-01-07T05:49:34.521Z,.16
2023-01-07T05:50:06.796Z,.32
2023-01-07T05:50:35.362Z,.32
2023-01-07T05:50:54.664Z,.32
2023-01-07T05:51:26.438Z,.32
2023-01-07T05:51:43.294Z,.32
2023-01-07T05:52:14.501Z,.16
2023-01-07T05:52:35.818Z,0
2023-01-07T05:53:02.423Z,0
2023-01-07T05:53:34.570Z,.16
2023-01-07T05:54:06.423Z,.16
2023-01-07T05:54:35.439Z,.16
2023-01-07T05:54:54.429Z,0
2023-01-07T05:55:26.739Z,0
2023-01-07T05:55:45.029Z,0
2023-01-07T05:56:14.455Z,0
2023-01-07T05:56:35.825Z,0
2023-01-07T05:57:02.400Z,0
2023-01-07T05:57:34.878Z,0
2023-01-07T05:58:06.431Z,0
2023-01-07T05:58:35.340Z,0
2023-01-07T05:58:55.171Z,0
2023-01-07T05:59:26.504Z,0
2023-01-07T05:59:43.316Z,0
2023-01-07T06:00:15.773Z,0
2023-01-07T06:00:35.849Z,0
2023-01-07T06:01:02.485Z,0
2023-01-07T06:01:34.592Z,0
2023-01-07T06:02:07.100Z,0
2023-01-07T06:02:35.533Z,0
2023-01-07T06:02:54.507Z,0
2023-01-07T06:03:26.452Z,0
2023-01-07T06:03:43.656Z,0
2023-01-07T06:04:14.427Z,0
2023-01-07T06:04:35.925Z,0
2023-01-07T06:05:03.897Z,0
2023-01-07T06:05:34.595Z,0
2023-01-07T06:06:06.447Z,0
2023-01-07T06:06:35.324Z,0
2023-01-07T06:06:54.424Z,0
2023-01-07T06:07:26.445Z,0
2023-01-07T06:07:43.320Z,0
2023-01-07T06:08:14.487Z,0
2023-01-07T06:08:35.931Z,0
2023-01-07T06:09:02.433Z,0
2023-01-07T06:09:34.613Z,0
2023-01-07T06:10:06.804Z,0
2023-01-07T06:10:35.362Z,0
2023-01-07T06:10:54.712Z,0
2023-01-07T06:11:26.445Z,0
2023-01-07T06:11:44.169Z,0
2023-01-07T06:12:14.440Z,0
2023-01-07T06:12:36.147Z,0
2023-01-07T06:13:02.433Z,0
2023-01-07T06:13:34.677Z,0
2023-01-07T06:14:06.419Z,0
2023-01-07T06:14:35.330Z,0
2023-01-07T06:14:55.353Z,0
2023-01-07T06:15:27.028Z,0
2023-01-07T06:15:43.367Z,0
2023-01-07T06:16:14.940Z,0
2023-01-07T06:16:35.912Z,0
2023-01-07T06:17:02.485Z,0
2023-01-07T06:17:34.786Z,0
2023-01-07T06:18:08.193Z,0
2023-01-07T06:18:35.630Z,0
2023-01-07T06:18:54.480Z,0
2023-01-07T06:19:26.438Z,0
2023-01-07T06:19:43.337Z,0
2023-01-07T06:20:14.715Z,0
2023-01-07T06:20:35.815Z,0
2023-01-07T06:21:02.478Z,0
2023-01-07T06:21:34.720Z,0
2023-01-07T06:22:06.433Z,0
2023-01-07T06:22:35.366Z,0
2023-01-07T06:22:54.459Z,0
2023-01-07T06:23:26.448Z,0
2023-01-07T06:23:43.297Z,0
2023-01-07T06:24:14.486Z,0
2023-01-07T06:24:35.839Z,0
2023-01-07T06:25:04.035Z,0
2023-01-07T06:25:34.660Z,0
2023-01-07T06:26:06.612Z,0
2023-01-07T06:26:36.065Z,0
2023-01-07T06:26:54.422Z,0
2023-01-07T06:27:26.492Z,0
2023-01-07T06:27:44.286Z,0
2023-01-07T06:28:14.441Z,0
2023-01-07T06:28:38.924Z,0
2023-01-07T06:29:02.423Z,0
2023-01-07T06:29:34.637Z,0
2023-01-07T06:30:08.657Z,0
2023-01-07T06:30:35.386Z,0
2023-01-07T06:30:55.508Z,0
2023-01-07T06:31:26.457Z,0
2023-01-07T06:31:43.330Z,0
2023-01-07T06:32:14.457Z,0
2023-01-07T06:32:35.822Z,0
2023-01-07T06:33:03.149Z,0
2023-01-07T06:33:35.048Z,0
2023-01-07T06:34:08.303Z,0
2023-01-07T06:34:35.791Z,0
2023-01-07T06:34:54.448Z,0
2023-01-07T06:35:26.723Z,0
2023-01-07T06:35:43.342Z,0
2023-01-07T06:36:14.452Z,0
2023-01-07T06:36:35.827Z,0